createdAt,value
2017-12-10T00:00:56.484Z,2.30
2017-12-10T00:03:24.744Z,3.03
2017-12-10T00:05:52.163Z,1.93
2017-12-10T00:08:19.588Z,2.60
2017-12-10T00:10:47.037Z,3.00
2017-12-10T00:13:14.452Z,2.30
2017-12-10T00:15:41.885Z,2.03
2017-12-10T00:18:09.334Z,1.90
2017-12-10T00:20:36.761Z,2.20
2017-12-10T00:23:04.956Z,2.03
2017-12-10T00:25:32.392Z,1.80
2017-12-10T00:28:00.610Z,1.90
2017-12-10T00:30:28.042Z,2.30
2017-12-10T00:32:55.471Z,1.80
2017-12-10T00:35:22.909Z,1.87
2017-12-10T00:37:50.343Z,1.83
2017-12-10T00:40:17.777Z,2.57
2017-12-10T00:42:45.200Z,2.13
2017-12-10T00:45:12.680Z,2.07
2017-12-10T00:47:40.885Z,1.83
2017-12-10T00:50:08.325Z,1.93
2017-12-10T00:52:35.763Z,2.07
2017-12-10T00:55:04.776Z,1.73
2017-12-10T00:57:32.201Z,1.57
2017-12-10T01:00:00.412Z,1.90
2017-12-10T01:02:27.835Z,2.03
2017-12-10T01:04:56.054Z,1.97
2017-12-10T01:07:23.484Z,1.57
2017-12-10T01:09:56.807Z,2.00
2017-12-10T01:12:24.235Z,2.40
2017-12-10T01:14:52.447Z,2.97
2017-12-10T01:17:19.896Z,2.87
2017-12-10T01:19:47.325Z,2.47
2017-12-10T01:22:14.756Z,3.23
2017-12-10T01:24:42.967Z,2.37
2017-12-10T01:27:10.400Z,2.20
2017-12-10T01:29:38.600Z,2.23
2017-12-10T01:32:06.037Z,1.80
2017-12-10T01:34:34.233Z,2.50
2017-12-10T01:37:01.671Z,2.30
2017-12-10T01:39:29.104Z,2.10
2017-12-10T01:41:56.537Z,2.10
2017-12-10T01:44:23.972Z,2.20
2017-12-10T01:46:51.412Z,2.87
2017-12-10T01:49:18.836Z,2.27
2017-12-10T01:51:46.268Z,2.70
2017-12-10T01:54:13.700Z,2.93
2017-12-10T01:56:41.153Z,3.50
2017-12-10T01:59:08.581Z,1.97
2017-12-10T02:01:36.797Z,2.73
2017-12-10T02:04:04.232Z,3.17
2017-12-10T02:06:31.656Z,2.70
2017-12-10T02:08:59.873Z,3.40
2017-12-10T02:11:27.304Z,3.00
2017-12-10T02:13:55.508Z,3.93
2017-12-10T02:16:22.937Z,2.83
2017-12-10T02:18:50.377Z,3.43
2017-12-10T02:21:18.715Z,4.07
2017-12-10T02:23:46.165Z,3.37
2017-12-10T02:26:13.593Z,3.80
2017-12-10T02:28:41.032Z,3.20
2017-12-10T02:31:08.458Z,2.87
2017-12-10T02:33:35.894Z,4.07
2017-12-10T02:36:03.330Z,4.50
2017-12-10T02:38:30.751Z,3.57
2017-12-10T02:40:58.947Z,4.37
2017-12-10T02:43:26.379Z,4.00
2017-12-10T02:45:54.592Z,3.13
2017-12-10T02:48:22.019Z,3.57
2017-12-10T02:50:50.220Z,3.37
2017-12-10T02:53:17.680Z,3.80
2017-12-10T02:55:45.868Z,2.90
2017-12-10T02:58:13.287Z,3.73
2017-12-10T03:00:41.499Z,2.90
2017-12-10T03:03:08.942Z,3.70
2017-12-10T03:05:36.418Z,3.50
2017-12-10T03:08:03.871Z,3.70
2017-12-10T03:10:31.314Z,4.23
2017-12-10T03:12:58.748Z,3.40
2017-12-10T03:15:26.181Z,2.80
2017-12-10T03:17:53.604Z,4.37
2017-12-10T03:20:21.045Z,3.70
2017-12-10T03:22:48.465Z,3.37
2017-12-10T03:25:16.682Z,3.63
2017-12-10T03:27:44.088Z,4.17
2017-12-10T03:30:11.534Z,4.73
2017-12-10T03:32:44.779Z,4.60
2017-12-10T03:35:12.205Z,4.53
2017-12-10T03:37:40.405Z,3.90
2017-12-10T03:40:07.843Z,3.60
2017-12-10T03:42:36.063Z,4.20
2017-12-10T03:45:03.488Z,3.70
2017-12-10T03:47:30.916Z,4.40
2017-12-10T03:49:58.340Z,4.57
2017-12-10T03:52:25.782Z,3.60
2017-12-10T03:54:53.200Z,3.83
2017-12-10T03:57:21.404Z,4.10
2017-12-10T03:59:48.832Z,4.70
2017-12-10T04:02:17.039Z,4.70
2017-12-10T04:04:44.469Z,4.83
2017-12-10T04:07:12.677Z,5.20
2017-12-10T04:09:40.096Z,4.60
2017-12-10T04:12:08.308Z,4.30
2017-12-10T04:14:35.751Z,5.77
2017-12-10T04:17:03.169Z,3.90
2017-12-10T04:19:30.591Z,5.20
2017-12-10T04:21:58.014Z,4.30
2017-12-10T04:24:25.450Z,3.60
2017-12-10T04:26:53.643Z,4.60
2017-12-10T04:29:21.076Z,4.87
2017-12-10T04:31:49.276Z,4.90
2017-12-10T04:34:16.703Z,5.13
2017-12-10T04:36:44.901Z,4.73
2017-12-10T04:39:13.105Z,4.40
2017-12-10T04:41:40.532Z,4.97
2017-12-10T04:44:07.965Z,4.67
2017-12-10T04:46:35.388Z,4.70
2017-12-10T04:49:02.816Z,4.70
2017-12-10T04:51:30.248Z,5.57
2017-12-10T04:53:58.467Z,5.43
2017-12-10T04:56:25.888Z,4.00
2017-12-10T04:58:53.338Z,4.73
2017-12-10T05:01:20.755Z,4.67
2017-12-10T05:03:48.185Z,4.37
2017-12-10T05:06:15.623Z,4.37
2017-12-10T05:08:43.055Z,4.97
2017-12-10T05:11:11.260Z,4.40
2017-12-10T05:13:38.692Z,3.93
2017-12-10T05:16:06.892Z,5.03
2017-12-10T05:18:34.317Z,4.37
2017-12-10T05:21:02.540Z,4.03
2017-12-10T05:23:29.952Z,5.67
2017-12-10T05:25:58.170Z,4.73
2017-12-10T05:28:25.601Z,4.13
2017-12-10T05:30:53.804Z,4.33
2017-12-10T05:33:21.233Z,4.20
2017-12-10T05:35:48.670Z,3.93
2017-12-10T05:38:16.092Z,4.30
2017-12-10T05:40:43.538Z,3.97
2017-12-10T05:43:10.973Z,4.57
2017-12-10T05:45:38.396Z,4.57
2017-12-10T05:48:05.823Z,4.00
2017-12-10T05:50:33.260Z,4.20
2017-12-10T05:53:00.710Z,5.00
2017-12-10T05:55:28.130Z,4.30
2017-12-10T05:57:56.334Z,4.10
2017-12-10T06:00:23.756Z,3.70
2017-12-10T06:02:51.956Z,3.80
2017-12-10T06:05:19.385Z,4.17
2017-12-10T06:07:46.820Z,5.57
2017-12-10T06:10:14.253Z,3.60
2017-12-10T06:12:41.690Z,4.47
2017-12-10T06:15:09.116Z,5.40
2017-12-10T06:17:37.320Z,4.10
2017-12-10T06:20:04.752Z,4.20
2017-12-10T06:22:36.920Z,3.57
2017-12-10T06:25:05.124Z,3.80
2017-12-10T06:27:32.568Z,3.17
2017-12-10T06:29:59.994Z,3.60
2017-12-10T06:32:27.433Z,4.00
2017-12-10T06:34:54.868Z,2.70
2017-12-10T06:37:26.019Z,3.30
2017-12-10T06:39:53.458Z,3.77
2017-12-10T06:42:20.889Z,2.90
2017-12-10T06:44:49.145Z,2.77
2017-12-10T06:47:16.577Z,3.10
2017-12-10T06:49:44.015Z,2.90
2017-12-10T06:52:11.432Z,3.30
2017-12-10T06:54:39.648Z,2.50
2017-12-10T06:57:07.086Z,2.90
2017-12-10T06:59:34.536Z,2.50
2017-12-10T07:02:01.969Z,3.43
2017-12-10T07:04:30.174Z,2.80
2017-12-10T07:06:57.603Z,3.50
2017-12-10T07:09:25.803Z,4.00
2017-12-10T07:11:53.239Z,3.03
2017-12-10T07:14:21.448Z,3.23
2017-12-10T07:16:49.654Z,3.87
2017-12-10T07:19:17.071Z,2.80
2017-12-10T07:21:44.503Z,3.30
2017-12-10T07:24:12.693Z,2.67
2017-12-10T07:26:40.124Z,2.90
2017-12-10T07:29:07.559Z,2.73
2017-12-10T07:31:34.988Z,4.67
2017-12-10T07:34:04.483Z,2.60
2017-12-10T07:36:31.896Z,3.77
2017-12-10T07:39:00.088Z,3.40
2017-12-10T07:41:31.719Z,3.03
2017-12-10T07:44:17.857Z,2.77
2017-12-10T07:46:45.307Z,2.77
2017-12-10T07:49:12.736Z,3.20
2017-12-10T07:51:40.933Z,2.70
2017-12-10T07:54:08.392Z,2.93
2017-12-10T07:56:35.824Z,2.80
2017-12-10T07:59:03.255Z,2.23
2017-12-10T08:01:30.689Z,2.40
2017-12-10T08:03:58.145Z,2.40
2017-12-10T08:06:25.556Z,1.87
2017-12-10T08:08:53.756Z,2.50
2017-12-10T08:11:21.180Z,3.00
2017-12-10T08:13:48.612Z,2.30
2017-12-10T08:16:16.043Z,2.23
2017-12-10T08:18:43.468Z,1.90
2017-12-10T08:21:11.676Z,1.97
2017-12-10T08:23:39.106Z,2.17
2017-12-10T08:26:06.531Z,2.13
2017-12-10T08:28:33.984Z,2.00
2017-12-10T08:31:01.533Z,2.10
2017-12-10T08:33:29.012Z,2.13
2017-12-10T08:35:57.215Z,2.90
2017-12-10T08:38:24.744Z,2.23
2017-12-10T08:40:52.204Z,3.37
2017-12-10T08:43:20.680Z,4.30
2017-12-10T08:45:48.108Z,2.57
2017-12-10T08:48:15.545Z,1.90
2017-12-10T08:50:42.989Z,2.13
2017-12-10T08:53:10.421Z,1.90
2017-12-10T08:55:38.632Z,2.60
2017-12-10T08:58:06.076Z,1.83
2017-12-10T09:00:33.507Z,2.67
2017-12-10T09:03:01.717Z,2.00
2017-12-10T09:05:29.133Z,1.83
2017-12-10T09:07:57.333Z,2.23
2017-12-10T09:10:24.761Z,2.83
2017-12-10T09:12:52.186Z,2.13
2017-12-10T09:15:27.332Z,2.33
2017-12-10T09:17:54.812Z,2.67
2017-12-10T09:20:25.356Z,2.60
2017-12-10T09:22:53.547Z,1.60
2017-12-10T09:25:21.082Z,1.60
2017-12-10T09:27:54.961Z,1.63
2017-12-10T09:30:22.404Z,1.83
2017-12-10T09:32:49.837Z,2.20
2017-12-10T09:35:17.266Z,3.53
2017-12-10T09:37:45.504Z,1.90
2017-12-10T09:40:12.936Z,2.20
2017-12-10T09:42:40.375Z,2.43
2017-12-10T09:45:14.029Z,2.20
2017-12-10T09:47:41.769Z,2.73
2017-12-10T09:50:15.628Z,1.47
2017-12-10T09:52:43.855Z,2.50
2017-12-10T09:55:11.289Z,1.93
2017-12-10T09:57:41.984Z,2.63
2017-12-10T10:00:09.418Z,2.10
2017-12-10T10:02:36.849Z,1.60
2017-12-10T10:05:04.292Z,2.20
2017-12-10T10:07:31.720Z,1.90
2017-12-10T10:10:07.853Z,1.77
2017-12-10T10:12:35.309Z,3.40
2017-12-10T10:15:02.790Z,2.17
2017-12-10T10:17:30.221Z,2.03
2017-12-10T10:19:57.656Z,2.13
2017-12-10T10:22:25.083Z,2.00
2017-12-10T10:24:52.512Z,2.70
2017-12-10T10:27:20.320Z,1.70
2017-12-10T10:29:47.743Z,1.87
2017-12-10T10:32:15.944Z,1.83
2017-12-10T10:34:43.423Z,2.30
2017-12-10T10:37:10.940Z,2.00
2017-12-10T10:39:39.136Z,1.60
2017-12-10T10:42:06.652Z,2.50
2017-12-10T10:44:34.076Z,2.90
2017-12-10T10:47:01.508Z,2.80
2017-12-10T10:49:28.941Z,2.50
2017-12-10T10:51:57.311Z,2.37
2017-12-10T10:54:24.732Z,2.70
2017-12-10T10:56:52.192Z,2.50
2017-12-10T10:59:19.623Z,1.93
2017-12-10T11:01:47.060Z,2.50
2017-12-10T11:04:14.483Z,2.87
2017-12-10T11:06:41.944Z,2.60
2017-12-10T11:09:09.373Z,2.17
2017-12-10T11:11:36.801Z,2.20
2017-12-10T11:14:04.229Z,2.50
2017-12-10T11:16:31.658Z,2.50
2017-12-10T11:18:59.092Z,2.70
2017-12-10T11:21:26.521Z,2.47
2017-12-10T11:23:53.952Z,3.23
2017-12-10T11:26:23.348Z,2.17
2017-12-10T11:28:50.818Z,3.07
2017-12-10T11:31:18.239Z,3.40
2017-12-10T11:33:45.673Z,2.97
2017-12-10T11:36:13.101Z,3.10
2017-12-10T11:38:41.308Z,3.00
2017-12-10T11:41:08.762Z,4.37
2017-12-10T11:43:36.220Z,3.00
2017-12-10T11:46:03.639Z,4.03
2017-12-10T11:48:31.840Z,5.20
2017-12-10T11:50:59.268Z,4.10
2017-12-10T11:53:27.468Z,3.43
2017-12-10T11:55:54.900Z,6.90
2017-12-10T11:58:23.123Z,4.27
2017-12-10T12:00:50.536Z,3.57
2017-12-10T12:03:17.972Z,3.00
2017-12-10T12:05:45.396Z,3.40
2017-12-10T12:08:12.836Z,3.40
2017-12-10T12:10:40.257Z,4.27
2017-12-10T12:13:08.453Z,3.90
2017-12-10T12:15:35.879Z,3.20
2017-12-10T12:18:04.072Z,3.20
2017-12-10T12:20:32.260Z,4.00
2017-12-10T12:22:59.684Z,3.80
2017-12-10T12:25:27.884Z,3.63
2017-12-10T12:27:56.104Z,3.90
2017-12-10T12:30:24.532Z,4.43
2017-12-10T12:32:52.723Z,4.83
2017-12-10T12:35:20.180Z,5.30
2017-12-10T12:37:47.600Z,4.10
2017-12-10T12:40:15.032Z,4.47
2017-12-10T12:42:42.484Z,3.50
2017-12-10T12:45:09.920Z,4.03
2017-12-10T12:47:37.341Z,4.13
2017-12-10T12:50:05.531Z,4.03
2017-12-10T12:52:32.956Z,3.90
2017-12-10T12:55:00.402Z,4.90
2017-12-10T12:57:27.845Z,5.07
2017-12-10T12:59:55.277Z,4.53
2017-12-10T13:02:22.713Z,3.90
2017-12-10T13:04:50.908Z,4.40
2017-12-10T13:07:19.336Z,4.33
2017-12-10T13:09:46.780Z,4.70
2017-12-10T13:12:15.747Z,5.00
2017-12-10T13:14:43.156Z,5.00
2017-12-10T13:17:11.392Z,4.00
2017-12-10T13:19:38.865Z,4.23
2017-12-10T13:22:06.336Z,5.67
2017-12-10T13:24:33.769Z,5.00
2017-12-10T13:27:01.250Z,9.70
2017-12-10T13:29:28.691Z,5.10
2017-12-10T13:31:56.746Z,7.03
2017-12-10T13:34:25.593Z,3.67
2017-12-10T13:36:53.817Z,3.67
2017-12-10T13:39:21.256Z,3.00
2017-12-10T13:41:48.688Z,3.40
2017-12-10T13:44:25.180Z,3.63
2017-12-10T13:47:02.858Z,3.37
2017-12-10T13:49:30.292Z,2.83
2017-12-10T13:51:58.491Z,2.70
2017-12-10T13:54:25.927Z,3.20
2017-12-10T13:56:54.193Z,2.50
2017-12-10T13:59:21.640Z,2.30
2017-12-10T14:01:49.070Z,2.50
2017-12-10T14:04:16.569Z,2.70
2017-12-10T14:06:46.071Z,3.23
2017-12-10T14:09:14.291Z,4.07
2017-12-10T14:11:45.492Z,3.83
2017-12-10T14:14:12.960Z,4.03
2017-12-10T14:16:42.252Z,3.67
2017-12-10T14:19:10.448Z,3.53
2017-12-10T14:21:37.889Z,4.13
2017-12-10T14:24:06.109Z,4.27
2017-12-10T14:26:33.507Z,4.60
2017-12-10T14:29:00.939Z,4.50
2017-12-10T14:31:28.373Z,5.80
2017-12-10T14:33:55.798Z,4.90
2017-12-10T14:36:24.005Z,5.33
2017-12-10T14:38:51.437Z,5.87
2017-12-10T14:41:18.872Z,5.87
2017-12-10T14:43:46.321Z,5.40
2017-12-10T14:46:14.040Z,6.23
2017-12-10T14:48:41.447Z,5.83
2017-12-10T14:51:08.943Z,5.57
2017-12-10T14:53:37.376Z,6.03
2017-12-10T14:56:04.854Z,6.90
2017-12-10T14:58:32.281Z,7.53
2017-12-10T15:00:59.720Z,5.07
2017-12-10T15:03:27.157Z,5.80
2017-12-10T15:05:54.583Z,5.53
2017-12-10T15:08:22.772Z,5.40
2017-12-10T15:10:50.213Z,5.60
2017-12-10T15:13:24.020Z,4.83
2017-12-10T15:15:52.212Z,4.23
2017-12-10T15:18:19.670Z,4.47
2017-12-10T15:20:48.121Z,4.73
2017-12-10T15:23:16.321Z,5.30
2017-12-10T15:25:43.744Z,4.63
2017-12-10T15:28:11.192Z,5.60
2017-12-10T15:30:38.617Z,5.10
2017-12-10T15:33:06.052Z,4.33
2017-12-10T15:35:33.476Z,5.00
2017-12-10T15:38:01.689Z,5.40
2017-12-10T15:40:29.115Z,6.40
2017-12-10T15:42:59.348Z,6.70
2017-12-10T15:45:27.554Z,5.93
2017-12-10T15:47:55.008Z,4.73
2017-12-10T15:50:22.456Z,5.00
2017-12-10T15:52:49.888Z,5.63
2017-12-10T15:55:18.084Z,4.77
2017-12-10T15:57:45.584Z,6.47
2017-12-10T16:00:13.037Z,6.63
2017-12-10T16:02:40.509Z,7.80
2017-12-10T16:05:08.821Z,12.30
2017-12-10T16:07:37.100Z,15.13
2017-12-10T16:10:04.599Z,11.33
2017-12-10T16:12:32.781Z,7.70
2017-12-10T16:15:00.224Z,8.70
2017-12-10T16:17:27.659Z,8.10
2017-12-10T16:19:55.184Z,8.30
2017-12-10T16:22:22.605Z,9.53
2017-12-10T16:24:50.047Z,9.30
2017-12-10T16:27:18.323Z,8.93
2017-12-10T16:29:45.779Z,11.20
2017-12-10T16:32:13.226Z,9.97
2017-12-10T16:34:40.662Z,10.50
2017-12-10T16:37:08.860Z,8.23
2017-12-10T16:39:36.290Z,8.77
2017-12-10T16:42:04.573Z,8.40
2017-12-10T16:44:32.012Z,9.70
2017-12-10T16:47:00.219Z,9.37
2017-12-10T16:49:27.654Z,8.53
2017-12-10T16:51:55.925Z,10.40
2017-12-10T16:54:26.339Z,8.30
2017-12-10T16:56:53.817Z,9.70
2017-12-10T16:59:22.881Z,9.40
2017-12-10T17:01:50.393Z,8.70
2017-12-10T17:04:17.824Z,11.00
2017-12-10T17:06:46.043Z,11.47
2017-12-10T17:09:13.513Z,11.10
2017-12-10T17:11:40.966Z,12.83
2017-12-10T17:14:08.403Z,10.77
2017-12-10T17:16:36.950Z,9.97
2017-12-10T17:19:04.371Z,10.93
2017-12-10T17:21:31.891Z,9.80
2017-12-10T17:23:59.392Z,8.83
2017-12-10T17:26:27.802Z,9.30
2017-12-10T17:28:56.000Z,10.80
2017-12-10T17:31:23.432Z,9.67
2017-12-10T17:33:51.634Z,9.53
2017-12-10T17:36:19.068Z,11.67
2017-12-10T17:38:47.271Z,10.27
2017-12-10T17:41:14.707Z,10.23
2017-12-10T17:43:42.139Z,9.50
2017-12-10T17:46:09.588Z,10.43
2017-12-10T17:48:37.023Z,9.77
2017-12-10T17:51:04.473Z,9.27
2017-12-10T17:53:31.899Z,9.37
2017-12-10T17:55:59.327Z,6.97
2017-12-10T17:58:26.768Z,8.37
2017-12-10T18:00:55.224Z,8.13
2017-12-10T18:03:25.899Z,8.30
2017-12-10T18:05:53.332Z,8.90
2017-12-10T18:08:20.775Z,7.53
2017-12-10T18:10:48.969Z,6.70
2017-12-10T18:13:16.416Z,6.50
2017-12-10T18:15:43.838Z,6.70
2017-12-10T18:18:11.268Z,6.10
2017-12-10T18:20:38.700Z,6.10
2017-12-10T18:23:06.145Z,6.70
2017-12-10T18:25:33.638Z,7.17
2017-12-10T18:28:01.022Z,6.07
2017-12-10T18:30:28.448Z,6.17
2017-12-10T18:32:56.664Z,6.57
2017-12-10T18:35:24.104Z,7.20
2017-12-10T18:37:51.566Z,5.10
2017-12-10T18:40:22.455Z,7.87
2017-12-10T18:42:49.886Z,6.93
2017-12-10T18:45:17.335Z,7.50
2017-12-10T18:47:44.778Z,8.07
2017-12-10T18:50:12.224Z,8.10
2017-12-10T18:52:40.402Z,7.60
2017-12-10T18:55:07.824Z,7.13
2017-12-10T18:57:35.542Z,6.60
2017-12-10T19:00:02.948Z,5.63
2017-12-10T19:02:31.708Z,7.07
2017-12-10T19:04:59.150Z,50.07
2017-12-10T19:07:26.595Z,11.10
2017-12-10T19:09:54.013Z,6.40
2017-12-10T19:12:28.416Z,5.30
2017-12-10T19:14:56.819Z,5.13
2017-12-10T19:17:24.240Z,6.00
2017-12-10T19:19:51.676Z,6.27
2017-12-10T19:22:19.107Z,5.70
2017-12-10T19:24:46.545Z,5.30
2017-12-10T19:27:14.724Z,5.20
2017-12-10T19:29:42.932Z,5.90
2017-12-10T19:32:10.360Z,4.60
2017-12-10T19:34:38.560Z,4.80
2017-12-10T19:37:05.980Z,3.90
2017-12-10T19:39:34.180Z,6.20
2017-12-10T19:42:01.602Z,4.27
2017-12-10T19:44:29.028Z,3.30
2017-12-10T19:46:56.491Z,3.90
2017-12-10T19:49:23.923Z,3.07
2017-12-10T19:51:51.347Z,3.50
2017-12-10T19:54:19.575Z,3.10
2017-12-10T19:56:48.084Z,5.63
2017-12-10T19:59:15.561Z,3.63
2017-12-10T20:01:43.053Z,4.73
2017-12-10T20:04:10.452Z,3.00
2017-12-10T20:06:37.880Z,5.63
2017-12-10T20:09:05.303Z,4.47
2017-12-10T20:11:32.780Z,4.00
2017-12-10T20:14:00.148Z,5.23
2017-12-10T20:16:27.581Z,3.30
2017-12-10T20:18:55.008Z,4.53
2017-12-10T20:21:23.204Z,7.80
2017-12-10T20:23:50.629Z,15.43
2017-12-10T20:26:18.059Z,6.20
2017-12-10T20:28:45.496Z,4.73
2017-12-10T20:31:12.927Z,4.40
2017-12-10T20:33:40.351Z,3.40
2017-12-10T20:36:07.776Z,3.70
2017-12-10T20:38:35.220Z,4.70
2017-12-10T20:41:02.643Z,7.07
2017-12-10T20:43:30.849Z,5.37
2017-12-10T20:45:58.284Z,5.63
2017-12-10T20:48:25.707Z,6.30
2017-12-10T20:50:53.139Z,6.40
2017-12-10T20:53:20.572Z,4.87
2017-12-10T20:55:48.021Z,4.07
2017-12-10T20:58:18.821Z,4.00
2017-12-10T21:00:46.252Z,3.30
2017-12-10T21:03:13.762Z,4.50
2017-12-10T21:05:41.960Z,5.63
2017-12-10T21:08:09.388Z,6.27
2017-12-10T21:10:37.591Z,3.80
2017-12-10T21:13:05.761Z,3.23
2017-12-10T21:15:33.180Z,3.40
2017-12-10T21:18:01.374Z,2.70
2017-12-10T21:20:28.793Z,2.70
2017-12-10T21:22:56.224Z,4.10
2017-12-10T21:25:23.647Z,2.73
2017-12-10T21:27:51.081Z,3.43
2017-12-10T21:30:19.273Z,3.37
2017-12-10T21:32:46.701Z,2.97
2017-12-10T21:35:14.124Z,4.27
2017-12-10T21:37:41.556Z,2.17
2017-12-10T21:40:08.980Z,2.53
2017-12-10T21:42:37.177Z,3.33
2017-12-10T21:45:04.592Z,1.73
2017-12-10T21:47:32.035Z,1.83
2017-12-10T21:49:59.451Z,3.03
2017-12-10T21:52:26.880Z,1.90
2017-12-10T21:54:54.292Z,2.00
2017-12-10T21:57:22.494Z,1.90
2017-12-10T21:59:49.929Z,2.53
2017-12-10T22:02:17.348Z,2.00
2017-12-10T22:04:44.799Z,1.80
2017-12-10T22:07:13.003Z,2.20
2017-12-10T22:09:40.424Z,2.50
2017-12-10T22:12:08.615Z,1.40
2017-12-10T22:14:36.044Z,1.90
2017-12-10T22:17:03.475Z,2.60
2017-12-10T22:19:30.894Z,1.60
2017-12-10T22:21:58.332Z,2.70
2017-12-10T22:24:25.784Z,3.73
2017-12-10T22:26:53.965Z,2.83
2017-12-10T22:29:21.396Z,2.83
2017-12-10T22:31:48.856Z,1.80
2017-12-10T22:34:16.259Z,1.73
2017-12-10T22:36:43.681Z,2.03
2017-12-10T22:39:11.960Z,2.00
2017-12-10T22:41:40.151Z,2.33
2017-12-10T22:44:07.568Z,2.80
2017-12-10T22:46:35.060Z,2.53
2017-12-10T22:49:02.650Z,1.70
2017-12-10T22:51:30.064Z,1.90
2017-12-10T22:53:58.263Z,1.63
2017-12-10T22:56:25.684Z,1.57
2017-12-10T22:58:53.882Z,2.13
2017-12-10T23:01:21.304Z,1.47
2017-12-10T23:03:48.735Z,1.40
2017-12-10T23:06:16.152Z,1.27
2017-12-10T23:08:43.580Z,1.43
2017-12-10T23:11:10.991Z,1.80
2017-12-10T23:13:50.419Z,1.43
2017-12-10T23:16:24.620Z,1.33
2017-12-10T23:18:53.067Z,1.33
2017-12-10T23:21:20.550Z,1.53
2017-12-10T23:23:47.915Z,1.93
2017-12-10T23:26:15.338Z,2.47
2017-12-10T23:28:42.747Z,1.97
2017-12-10T23:31:10.191Z,2.07
2017-12-10T23:33:37.607Z,2.50
2017-12-10T23:36:05.058Z,2.30
2017-12-10T23:38:32.483Z,1.40
2017-12-10T23:40:59.904Z,1.70
2017-12-10T23:43:27.326Z,1.60
2017-12-10T23:45:54.755Z,1.63
2017-12-10T23:48:22.176Z,2.13
2017-12-10T23:50:49.599Z,2.00
2017-12-10T23:53:17.016Z,2.20
2017-12-10T23:55:44.444Z,2.07
2017-12-10T23:58:11.860Z,2.00
